Jennifer — WDF6480 — position and weather

sailwx.info

Track history (hours):
 
Tides and Currents Weather Stations Pressure Air Temp Water Temp Dewpoint Dewpoint Depression Visibility Wind Speed Wind Dir Waves Ship Positions

Jennifer

Owner: John W. Stone Oil Distributor, L.L.C., Gretna, LA. More information available from US FCC via Universal Licensing System and Coast Guard Vessel Documentation Center.

Last reported at 2015-Mar-04 18:19 UTC. Time now 2015-Mar-06 20:12 UTC.
Position N 29°55' W 090°05'.

Length 17 m; draft 3 m.

Type: Tug. MMSI: 367474690.

Date/timePositionNaut miles runAvg speedWind from/ knotsBaromVisibWave heightAir tempDewpointWater temp
2015-Mar-04 18:19N 29°55' W 090°05'1 1.2
2015-Mar-04 17:07N 29°56' W 090°04'0 0.3
2015-Mar-04 16:06N 29°55' W 090°04'0 0.2
2015-Mar-04 15:25N 29°55' W 090°04'0 0.0
2015-Mar-04 14:31N 29°55' W 090°04'0 0.0
2015-Mar-04 13:32N 29°55' W 090°04'0 0.0
2015-Mar-04 12:33N 29°55' W 090°04'0 0.0
2015-Mar-04 04:14N 29°56' W 090°04'0 0.0
2015-Mar-04 03:29N 29°56' W 090°04'0 0.0
2015-Mar-04 02:23N 29°56' W 090°04'2 2.1
2015-Mar-04 01:28N 29°57' W 090°03'5 1.3
2015-Mar-03 21:25N 29°55' W 089°57'3 3.0
2015-Mar-03 20:32N 29°56' W 090°00'0 0.0
2015-Mar-03 19:32N 29°56' W 090°00'0 0.0
2015-Mar-03 18:32N 29°56' W 090°00'0 0.0
2015-Mar-03 17:33N 29°56' W 090°00'0 0.0
2015-Mar-03 16:31N 29°56' W 090°00'0 0.0
2015-Mar-02 16:33N 29°56' W 090°00'3 3.3
2015-Mar-02 15:30N 29°55' W 090°04'0 0.0
2015-Mar-02 14:32N 29°55' W 090°04'0 0.0
2015-Mar-02 13:34N 29°55' W 090°04'0 0.1
2015-Mar-02 12:32N 29°55' W 090°04'0 0.0
2015-Mar-02 11:32N 29°55' W 090°04'0 0.0
2015-Mar-02 10:32N 29°55' W 090°04'0 0.0
2015-Mar-02 09:32N 29°55' W 090°04'0 0.0
2015-Mar-02 08:33N 29°55' W 090°04'0 0.0
2015-Mar-02 07:27N 29°55' W 090°04'0 0.0
2015-Mar-01 21:26N 29°55' W 090°04'0 0.1
2015-Mar-01 20:30N 29°56' W 090°04'0 0.0
2015-Feb-28 14:33N 29°55' W 090°04'0 0.0
2015-Feb-28 12:15N 29°55' W 090°04'0 0.0
2015-Feb-28 11:14N 29°55' W 090°04'0 0.0
2015-Feb-28 10:33N 29°55' W 090°04'0 0.0
2015-Feb-28 09:27N 29°55' W 090°04'0 0.0
2015-Feb-28 08:33N 29°55' W 090°04'0 0.0
2015-Feb-28 07:33N 29°55' W 090°04'0 0.0
2015-Feb-28 06:32N 29°55' W 090°04'0 0.0
2015-Feb-28 05:33N 29°55' W 090°04'0 0.0
2015-Feb-28 04:33N 29°55' W 090°04'0 0.1
2015-Feb-28 03:32N 29°56' W 090°04'3 3.0
2015-Feb-28 02:25N 29°55' W 090°07'3 2.4
2015-Feb-28 01:20N 29°57' W 090°09'3 3.7
2015-Feb-28 00:31N 29°55' W 090°06'2 2.5
2015-Feb-27 23:32N 29°55' W 090°04'0 0.0
2015-Feb-27 22:30N 29°55' W 090°04'0 0.1
2015-Feb-27 21:25N 29°56' W 090°04'0 0.2
2015-Feb-27 20:27N 29°55' W 090°04'0 0.1
2015-Feb-27 19:33N 29°55' W 090°04'0 0.0
2015-Feb-27 17:25N 29°55' W 090°04'0 0.1
2015-Feb-27 13:29N 29°55' W 090°04'0 0.1
2015-Feb-27 11:19N 29°55' W 090°04'0 0.2
2015-Feb-27 10:06N 29°56' W 090°04'1 0.6
2015-Feb-27 09:13N 29°56' W 090°03'4 3.9
2015-Feb-27 08:18N 29°56' W 089°59'1 0.0
2015-Feb-26 08:08N 29°56' W 089°60'0 0.0
2015-Feb-26 07:08N 29°56' W 089°60'5 0.4
2015-Feb-25 18:08N 29°55' W 090°05'0 0.0
2015-Feb-25 17:21N 29°55' W 090°05'1 0.7
2015-Feb-25 15:33N 29°55' W 090°04'0 0.0
2015-Feb-25 14:25N 29°55' W 090°04'0 0.0
2015-Feb-25 13:29N 29°55' W 090°04'0 0.0
2015-Feb-25 12:31N 29°55' W 090°04'0 0.0
2015-Feb-25 11:33N 29°55' W 090°04'0 0.0
2015-Feb-25 10:33N 29°55' W 090°04'0 0.0
2015-Feb-25 09:33N 29°55' W 090°04'0 0.0
2015-Feb-25 08:33N 29°55' W 090°04'1 1.2
2015-Feb-25 07:33N 29°55' W 090°05'0 0.0
2015-Feb-25 06:33N 29°55' W 090°05'2 2.1
2015-Feb-25 05:32N 29°55' W 090°07'0 0.0
2015-Feb-25 04:33N 29°55' W 090°07'0 0.0
2015-Feb-25 03:27N 29°55' W 090°07'1 0.7
2015-Feb-25 02:29N 29°55' W 090°07'1 1.3
2015-Feb-25 01:23N 29°55' W 090°05'1 0.1
2015-Feb-24 14:12N 29°55' W 090°04'0 0.1
2015-Feb-24 13:22N 29°55' W 090°04'0 0.5
2015-Feb-24 12:27N 29°56' W 090°03'0 0.0
2015-Feb-24 11:27N 29°56' W 090°03'0 0.0
2015-Feb-24 10:31N 29°56' W 090°03'0 0.4
2015-Feb-24 09:32N 29°55' W 090°04'0 0.0
2015-Feb-24 08:33N 29°55' W 090°04'0 0.0
2015-Feb-24 07:31N 29°55' W 090°04'0 0.3
2015-Feb-24 06:32N 29°55' W 090°04'2 1.7
2015-Feb-24 05:32N 29°54' W 090°05'5 4.6
2015-Feb-24 04:20N 29°48' W 090°04'  
Track history (hours):
 
Tides and Currents Weather Stations Pressure Air Temp Water Temp Dewpoint Dewpoint Depression Visibility Wind Speed Wind Dir Waves Ship Positions

Jennifer

Owner: John W. Stone Oil Distributor, L.L.C., Gretna, LA. More information available from US FCC via Universal Licensing System and Coast Guard Vessel Documentation Center.

Last reported at 2015-Mar-04 18:19 UTC. Time now 2015-Mar-06 20:12 UTC.
Position N 29°55' W 090°05'.

Length 17 m; draft 3 m.

Type: Tug. MMSI: 367474690.

Date/timePositionNaut miles runAvg speedWind from/ knotsBaromVisibWave heightAir tempDewpointWater temp
2015-Mar-04 18:19N 29°55' W 090°05'1 1.2
2015-Mar-04 17:07N 29°56' W 090°04'0 0.3
2015-Mar-04 16:06N 29°55' W 090°04'0 0.2
2015-Mar-04 15:25N 29°55' W 090°04'0 0.0
2015-Mar-04 14:31N 29°55' W 090°04'0 0.0
2015-Mar-04 13:32N 29°55' W 090°04'0 0.0
2015-Mar-04 12:33N 29°55' W 090°04'0 0.0
2015-Mar-04 04:14N 29°56' W 090°04'0 0.0
2015-Mar-04 03:29N 29°56' W 090°04'0 0.0
2015-Mar-04 02:23N 29°56' W 090°04'2 2.1
2015-Mar-04 01:28N 29°57' W 090°03'5 1.3
2015-Mar-03 21:25N 29°55' W 089°57'3 3.0
2015-Mar-03 20:32N 29°56' W 090°00'0 0.0
2015-Mar-03 19:32N 29°56' W 090°00'0 0.0
2015-Mar-03 18:32N 29°56' W 090°00'0 0.0
2015-Mar-03 17:33N 29°56' W 090°00'0 0.0
2015-Mar-03 16:31N 29°56' W 090°00'0 0.0
2015-Mar-02 16:33N 29°56' W 090°00'3 3.3
2015-Mar-02 15:30N 29°55' W 090°04'0 0.0
2015-Mar-02 14:32N 29°55' W 090°04'0 0.0
2015-Mar-02 13:34N 29°55' W 090°04'0 0.1
2015-Mar-02 12:32N 29°55' W 090°04'0 0.0
2015-Mar-02 11:32N 29°55' W 090°04'0 0.0
2015-Mar-02 10:32N 29°55' W 090°04'0 0.0
2015-Mar-02 09:32N 29°55' W 090°04'0 0.0
2015-Mar-02 08:33N 29°55' W 090°04'0 0.0
2015-Mar-02 07:27N 29°55' W 090°04'0 0.0
2015-Mar-01 21:26N 29°55' W 090°04'0 0.1
2015-Mar-01 20:30N 29°56' W 090°04'0 0.0
2015-Feb-28 14:33N 29°55' W 090°04'0 0.0
2015-Feb-28 12:15N 29°55' W 090°04'0 0.0
2015-Feb-28 11:14N 29°55' W 090°04'0 0.0
2015-Feb-28 10:33N 29°55' W 090°04'0 0.0
2015-Feb-28 09:27N 29°55' W 090°04'0 0.0
2015-Feb-28 08:33N 29°55' W 090°04'0 0.0
2015-Feb-28 07:33N 29°55' W 090°04'0 0.0
2015-Feb-28 06:32N 29°55' W 090°04'0 0.0
2015-Feb-28 05:33N 29°55' W 090°04'0 0.0
2015-Feb-28 04:33N 29°55' W 090°04'0 0.1
2015-Feb-28 03:32N 29°56' W 090°04'3 3.0
2015-Feb-28 02:25N 29°55' W 090°07'3 2.4
2015-Feb-28 01:20N 29°57' W 090°09'3 3.7
2015-Feb-28 00:31N 29°55' W 090°06'2 2.5
2015-Feb-27 23:32N 29°55' W 090°04'0 0.0
2015-Feb-27 22:30N 29°55' W 090°04'0 0.1
2015-Feb-27 21:25N 29°56' W 090°04'0 0.2
2015-Feb-27 20:27N 29°55' W 090°04'0 0.1
2015-Feb-27 19:33N 29°55' W 090°04'0 0.0
2015-Feb-27 17:25N 29°55' W 090°04'0 0.1
2015-Feb-27 13:29N 29°55' W 090°04'0 0.1
2015-Feb-27 11:19N 29°55' W 090°04'0 0.2
2015-Feb-27 10:06N 29°56' W 090°04'1 0.6
2015-Feb-27 09:13N 29°56' W 090°03'4 3.9
2015-Feb-27 08:18N 29°56' W 089°59'1 0.0
2015-Feb-26 08:08N 29°56' W 089°60'0 0.0
2015-Feb-26 07:08N 29°56' W 089°60'5 0.4
2015-Feb-25 18:08N 29°55' W 090°05'0 0.0
2015-Feb-25 17:21N 29°55' W 090°05'1 0.7
2015-Feb-25 15:33N 29°55' W 090°04'0 0.0
2015-Feb-25 14:25N 29°55' W 090°04'0 0.0
2015-Feb-25 13:29N 29°55' W 090°04'0 0.0
2015-Feb-25 12:31N 29°55' W 090°04'0 0.0
2015-Feb-25 11:33N 29°55' W 090°04'0 0.0
2015-Feb-25 10:33N 29°55' W 090°04'0 0.0
2015-Feb-25 09:33N 29°55' W 090°04'0 0.0
2015-Feb-25 08:33N 29°55' W 090°04'1 1.2
2015-Feb-25 07:33N 29°55' W 090°05'0 0.0
2015-Feb-25 06:33N 29°55' W 090°05'2 2.1
2015-Feb-25 05:32N 29°55' W 090°07'0 0.0
2015-Feb-25 04:33N 29°55' W 090°07'0 0.0
2015-Feb-25 03:27N 29°55' W 090°07'1 0.7
2015-Feb-25 02:29N 29°55' W 090°07'1 1.3
2015-Feb-25 01:23N 29°55' W 090°05'1 0.1
2015-Feb-24 14:12N 29°55' W 090°04'0 0.1
2015-Feb-24 13:22N 29°55' W 090°04'0 0.5
2015-Feb-24 12:27N 29°56' W 090°03'0 0.0
2015-Feb-24 11:27N 29°56' W 090°03'0 0.0
2015-Feb-24 10:31N 29°56' W 090°03'0 0.4
2015-Feb-24 09:32N 29°55' W 090°04'0 0.0
2015-Feb-24 08:33N 29°55' W 090°04'0 0.0
2015-Feb-24 07:31N 29°55' W 090°04'0 0.3
2015-Feb-24 06:32N 29°55' W 090°04'2 1.7
2015-Feb-24 05:32N 29°54' W 090°05'5 4.6
2015-Feb-24 04:20N 29°48' W 090°04'  

Dump ship's entire track history